sensor_id;sensor_type;location;lat;lon;timestamp;P1;durP1;ratioP1;P2;durP2;ratioP2
4961;SDS011;2496;52.468;13.342;2023-02-19T00:01:40;6.53;;;5.00;;
4961;SDS011;2496;52.468;13.342;2023-02-19T00:04:10;5.63;;;4.80;;
4961;SDS011;2496;52.468;13.342;2023-02-19T00:06:39;4.70;;;3.80;;
4961;SDS011;2496;52.468;13.342;2023-02-19T00:09:06;5.20;;;3.87;;
4961;SDS011;2496;52.468;13.342;2023-02-19T00:11:36;6.03;;;3.97;;
4961;SDS011;2496;52.468;13.342;2023-02-19T00:14:04;7.97;;;4.17;;
4961;SDS011;2496;52.468;13.342;2023-02-19T00:16:33;6.90;;;4.10;;
4961;SDS011;2496;52.468;13.342;2023-02-19T00:19:06;6.70;;;4.13;;
4961;SDS011;2496;52.468;13.342;2023-02-19T00:21:37;6.43;;;4.03;;
4961;SDS011;2496;52.468;13.342;2023-02-19T00:24:04;7.10;;;3.90;;
4961;SDS011;2496;52.468;13.342;2023-02-19T00:26:33;7.47;;;4.70;;
4961;SDS011;2496;52.468;13.342;2023-02-19T00:29:01;5.40;;;4.13;;
4961;SDS011;2496;52.468;13.342;2023-02-19T00:31:29;6.63;;;4.20;;
4961;SDS011;2496;52.468;13.342;2023-02-19T00:33:58;4.93;;;3.87;;
4961;SDS011;2496;52.468;13.342;2023-02-19T00:36:28;5.37;;;4.47;;
4961;SDS011;2496;52.468;13.342;2023-02-19T00:38:56;6.23;;;4.50;;
4961;SDS011;2496;52.468;13.342;2023-02-19T00:41:23;4.70;;;4.10;;
4961;SDS011;2496;52.468;13.342;2023-02-19T00:43:51;6.70;;;4.67;;
4961;SDS011;2496;52.468;13.342;2023-02-19T00:46:22;7.03;;;5.17;;
4961;SDS011;2496;52.468;13.342;2023-02-19T00:48:50;7.43;;;5.33;;
4961;SDS011;2496;52.468;13.342;2023-02-19T00:51:18;8.40;;;4.93;;
4961;SDS011;2496;52.468;13.342;2023-02-19T00:53:46;6.60;;;4.83;;
4961;SDS011;2496;52.468;13.342;2023-02-19T00:56:14;5.70;;;4.17;;
4961;SDS011;2496;52.468;13.342;2023-02-19T00:58:41;6.70;;;4.47;;
4961;SDS011;2496;52.468;13.342;2023-02-19T01:01:08;7.87;;;5.40;;
4961;SDS011;2496;52.468;13.342;2023-02-19T01:03:38;6.83;;;5.30;;
4961;SDS011;2496;52.468;13.342;2023-02-19T01:06:06;7.00;;;5.00;;
4961;SDS011;2496;52.468;13.342;2023-02-19T01:08:35;5.23;;;4.73;;
4961;SDS011;2496;52.468;13.342;2023-02-19T01:11:03;7.43;;;4.63;;
4961;SDS011;2496;52.468;13.342;2023-02-19T01:13:31;7.90;;;4.83;;
4961;SDS011;2496;52.468;13.342;2023-02-19T01:16:02;8.07;;;5.37;;
4961;SDS011;2496;52.468;13.342;2023-02-19T01:18:30;7.40;;;4.63;;
4961;SDS011;2496;52.468;13.342;2023-02-19T01:20:58;6.33;;;4.93;;
4961;SDS011;2496;52.468;13.342;2023-02-19T01:23:25;9.00;;;5.30;;
4961;SDS011;2496;52.468;13.342;2023-02-19T01:25:52;8.50;;;5.70;;
4961;SDS011;2496;52.468;13.342;2023-02-19T01:28:19;7.50;;;5.33;;
4961;SDS011;2496;52.468;13.342;2023-02-19T01:30:47;7.50;;;5.30;;
4961;SDS011;2496;52.468;13.342;2023-02-19T01:33:14;8.50;;;5.53;;
4961;SDS011;2496;52.468;13.342;2023-02-19T01:35:41;7.73;;;5.50;;
4961;SDS011;2496;52.468;13.342;2023-02-19T01:38:09;5.80;;;4.50;;
4961;SDS011;2496;52.468;13.342;2023-02-19T01:40:36;7.47;;;5.70;;
4961;SDS011;2496;52.468;13.342;2023-02-19T01:43:04;7.97;;;5.77;;
4961;SDS011;2496;52.468;13.342;2023-02-19T01:45:37;8.33;;;5.70;;
4961;SDS011;2496;52.468;13.342;2023-02-19T01:48:06;8.70;;;5.80;;
4961;SDS011;2496;52.468;13.342;2023-02-19T01:50:38;6.80;;;5.43;;
4961;SDS011;2496;52.468;13.342;2023-02-19T01:53:11;10.13;;;5.00;;
4961;SDS011;2496;52.468;13.342;2023-02-19T01:55:41;7.03;;;5.70;;
4961;SDS011;2496;52.468;13.342;2023-02-19T01:58:11;7.67;;;5.50;;
4961;SDS011;2496;52.468;13.342;2023-02-19T02:00:40;6.53;;;4.67;;
4961;SDS011;2496;52.468;13.342;2023-02-19T02:03:07;6.83;;;5.50;;
4961;SDS011;2496;52.468;13.342;2023-02-19T02:05:45;8.83;;;5.03;;
4961;SDS011;2496;52.468;13.342;2023-02-19T02:08:19;8.23;;;5.97;;
4961;SDS011;2496;52.468;13.342;2023-02-19T02:11:04;6.00;;;4.30;;
4961;SDS011;2496;52.468;13.342;2023-02-19T02:13:31;8.80;;;4.10;;
4961;SDS011;2496;52.468;13.342;2023-02-19T02:16:03;6.93;;;4.33;;
4961;SDS011;2496;52.468;13.342;2023-02-19T02:18:40;8.93;;;3.63;;
4961;SDS011;2496;52.468;13.342;2023-02-19T02:21:28;13.93;;;3.50;;
4961;SDS011;2496;52.468;13.342;2023-02-19T02:27:33;5.40;;;3.27;;
4961;SDS011;2496;52.468;13.342;2023-02-19T02:33:00;10.20;;;4.50;;
4961;SDS011;2496;52.468;13.342;2023-02-19T02:35:39;4.00;;;3.10;;
4961;SDS011;2496;52.468;13.342;2023-02-19T02:38:11;5.10;;;2.90;;
4961;SDS011;2496;52.468;13.342;2023-02-19T02:40:40;7.10;;;3.17;;
4961;SDS011;2496;52.468;13.342;2023-02-19T02:43:09;5.97;;;3.37;;
4961;SDS011;2496;52.468;13.342;2023-02-19T02:45:38;6.40;;;3.23;;
4961;SDS011;2496;52.468;13.342;2023-02-19T02:48:07;7.90;;;3.30;;
4961;SDS011;2496;52.468;13.342;2023-02-19T02:50:42;6.00;;;3.07;;
4961;SDS011;2496;52.468;13.342;2023-02-19T02:53:13;5.10;;;3.17;;
4961;SDS011;2496;52.468;13.342;2023-02-19T02:56:03;4.67;;;2.83;;
4961;SDS011;2496;52.468;13.342;2023-02-19T02:58:30;8.43;;;3.60;;
4961;SDS011;2496;52.468;13.342;2023-02-19T03:01:01;5.10;;;2.33;;
4961;SDS011;2496;52.468;13.342;2023-02-19T03:03:51;5.43;;;3.27;;
4961;SDS011;2496;52.468;13.342;2023-02-19T03:06:21;5.93;;;3.30;;
4961;SDS011;2496;52.468;13.342;2023-02-19T03:08:52;7.70;;;3.50;;
4961;SDS011;2496;52.468;13.342;2023-02-19T03:11:23;7.93;;;3.90;;
4961;SDS011;2496;52.468;13.342;2023-02-19T03:14:10;21.93;;;4.10;;
4961;SDS011;2496;52.468;13.342;2023-02-19T03:17:04;9.87;;;3.53;;
4961;SDS011;2496;52.468;13.342;2023-02-19T03:19:53;13.77;;;4.30;;
4961;SDS011;2496;52.468;13.342;2023-02-19T03:22:24;6.33;;;3.27;;
4961;SDS011;2496;52.468;13.342;2023-02-19T03:24:54;8.10;;;3.13;;
4961;SDS011;2496;52.468;13.342;2023-02-19T03:27:43;8.90;;;3.50;;
4961;SDS011;2496;52.468;13.342;2023-02-19T03:30:15;9.40;;;3.77;;
4961;SDS011;2496;52.468;13.342;2023-02-19T03:32:47;8.23;;;4.60;;
4961;SDS011;2496;52.468;13.342;2023-02-19T03:35:17;5.03;;;3.40;;
4961;SDS011;2496;52.468;13.342;2023-02-19T03:37:49;10.47;;;4.27;;
4961;SDS011;2496;52.468;13.342;2023-02-19T03:40:24;5.40;;;3.83;;
4961;SDS011;2496;52.468;13.342;2023-02-19T03:42:57;7.50;;;4.10;;
4961;SDS011;2496;52.468;13.342;2023-02-19T03:45:31;11.13;;;4.10;;
4961;SDS011;2496;52.468;13.342;2023-02-19T03:50:55;6.43;;;4.70;;
4961;SDS011;2496;52.468;13.342;2023-02-19T03:53:31;11.50;;;3.93;;
4961;SDS011;2496;52.468;13.342;2023-02-19T03:56:06;13.93;;;4.00;;
4961;SDS011;2496;52.468;13.342;2023-02-19T03:58:40;9.83;;;3.13;;
4961;SDS011;2496;52.468;13.342;2023-02-19T04:01:15;7.47;;;3.00;;
4961;SDS011;2496;52.468;13.342;2023-02-19T04:03:49;8.33;;;2.30;;
4961;SDS011;2496;52.468;13.342;2023-02-19T04:06:19;12.87;;;2.77;;
4961;SDS011;2496;52.468;13.342;2023-02-19T04:08:52;4.50;;;2.00;;
4961;SDS011;2496;52.468;13.342;2023-02-19T04:11:22;6.53;;;2.80;;
4961;SDS011;2496;52.468;13.342;2023-02-19T04:13:53;8.03;;;2.97;;
4961;SDS011;2496;52.468;13.342;2023-02-19T04:16:25;6.33;;;2.50;;
4961;SDS011;2496;52.468;13.342;2023-02-19T04:18:56;10.10;;;3.07;;
4961;SDS011;2496;52.468;13.342;2023-02-19T04:21:27;6.83;;;3.07;;
4961;SDS011;2496;52.468;13.342;2023-02-19T04:23:58;6.60;;;3.10;;
4961;SDS011;2496;52.468;13.342;2023-02-19T04:26:29;7.97;;;3.00;;
4961;SDS011;2496;52.468;13.342;2023-02-19T04:28:57;9.93;;;3.13;;
4961;SDS011;2496;52.468;13.342;2023-02-19T04:31:28;5.80;;;3.00;;
4961;SDS011;2496;52.468;13.342;2023-02-19T04:34:00;10.10;;;3.00;;
4961;SDS011;2496;52.468;13.342;2023-02-19T04:36:28;10.70;;;2.80;;
4961;SDS011;2496;52.468;13.342;2023-02-19T04:38:55;8.43;;;3.20;;
4961;SDS011;2496;52.468;13.342;2023-02-19T04:41:23;6.93;;;3.67;;
4961;SDS011;2496;52.468;13.342;2023-02-19T04:43:50;10.40;;;2.87;;
4961;SDS011;2496;52.468;13.342;2023-02-19T04:46:17;4.63;;;2.90;;
4961;SDS011;2496;52.468;13.342;2023-02-19T04:48:45;11.43;;;2.60;;
4961;SDS011;2496;52.468;13.342;2023-02-19T04:51:13;5.67;;;2.83;;
4961;SDS011;2496;52.468;13.342;2023-02-19T04:53:40;3.00;;;2.57;;
4961;SDS011;2496;52.468;13.342;2023-02-19T04:56:08;7.50;;;3.30;;
4961;SDS011;2496;52.468;13.342;2023-02-19T04:58:37;4.57;;;3.03;;
4961;SDS011;2496;52.468;13.342;2023-02-19T05:01:05;12.67;;;3.53;;
4961;SDS011;2496;52.468;13.342;2023-02-19T05:03:33;4.50;;;3.00;;
4961;SDS011;2496;52.468;13.342;2023-02-19T05:06:01;8.60;;;3.60;;
4961;SDS011;2496;52.468;13.342;2023-02-19T05:08:30;4.00;;;3.03;;
4961;SDS011;2496;52.468;13.342;2023-02-19T05:10:57;12.60;;;4.00;;
4961;SDS011;2496;52.468;13.342;2023-02-19T05:13:25;5.13;;;3.30;;
4961;SDS011;2496;52.468;13.342;2023-02-19T05:15:53;8.30;;;5.30;;
4961;SDS011;2496;52.468;13.342;2023-02-19T05:18:21;8.73;;;2.97;;
4961;SDS011;2496;52.468;13.342;2023-02-19T05:20:49;4.77;;;3.60;;
4961;SDS011;2496;52.468;13.342;2023-02-19T05:23:16;5.43;;;3.00;;
4961;SDS011;2496;52.468;13.342;2023-02-19T05:25:45;5.97;;;3.33;;
4961;SDS011;2496;52.468;13.342;2023-02-19T05:28:16;6.80;;;3.03;;
4961;SDS011;2496;52.468;13.342;2023-02-19T05:30:43;5.83;;;3.27;;
4961;SDS011;2496;52.468;13.342;2023-02-19T05:33:11;6.93;;;3.70;;
4961;SDS011;2496;52.468;13.342;2023-02-19T05:35:39;7.13;;;3.90;;
4961;SDS011;2496;52.468;13.342;2023-02-19T05:38:07;8.80;;;4.07;;
4961;SDS011;2496;52.468;13.342;2023-02-19T05:40:35;6.70;;;3.30;;
4961;SDS011;2496;52.468;13.342;2023-02-19T05:43:04;7.93;;;3.00;;
4961;SDS011;2496;52.468;13.342;2023-02-19T05:45:32;7.13;;;3.00;;
4961;SDS011;2496;52.468;13.342;2023-02-19T05:47:59;5.73;;;2.90;;
4961;SDS011;2496;52.468;13.342;2023-02-19T05:50:27;5.43;;;3.20;;
4961;SDS011;2496;52.468;13.342;2023-02-19T05:52:54;6.97;;;3.00;;
4961;SDS011;2496;52.468;13.342;2023-02-19T05:55:21;6.67;;;2.97;;
4961;SDS011;2496;52.468;13.342;2023-02-19T05:57:48;7.10;;;3.07;;
4961;SDS011;2496;52.468;13.342;2023-02-19T06:00:17;4.90;;;2.90;;
4961;SDS011;2496;52.468;13.342;2023-02-19T06:02:45;7.70;;;2.90;;
4961;SDS011;2496;52.468;13.342;2023-02-19T06:05:13;6.13;;;2.60;;
4961;SDS011;2496;52.468;13.342;2023-02-19T06:07:40;9.50;;;4.23;;
4961;SDS011;2496;52.468;13.342;2023-02-19T06:10:08;5.70;;;3.10;;
4961;SDS011;2496;52.468;13.342;2023-02-19T06:12:35;8.83;;;3.30;;
4961;SDS011;2496;52.468;13.342;2023-02-19T06:15:03;7.10;;;2.73;;
4961;SDS011;2496;52.468;13.342;2023-02-19T06:17:32;6.03;;;3.50;;
4961;SDS011;2496;52.468;13.342;2023-02-19T06:19:59;7.83;;;2.77;;
4961;SDS011;2496;52.468;13.342;2023-02-19T06:22:27;2.97;;;2.47;;
4961;SDS011;2496;52.468;13.342;2023-02-19T06:24:54;5.13;;;2.10;;
4961;SDS011;2496;52.468;13.342;2023-02-19T06:27:21;7.07;;;2.17;;
4961;SDS011;2496;52.468;13.342;2023-02-19T06:29:48;5.73;;;2.47;;
4961;SDS011;2496;52.468;13.342;2023-02-19T06:32:15;2.60;;;1.90;;
4961;SDS011;2496;52.468;13.342;2023-02-19T06:34:43;8.43;;;2.30;;
4961;SDS011;2496;52.468;13.342;2023-02-19T06:37:11;2.70;;;1.57;;
4961;SDS011;2496;52.468;13.342;2023-02-19T06:39:38;6.43;;;3.23;;
4961;SDS011;2496;52.468;13.342;2023-02-19T06:42:05;7.73;;;1.90;;
4961;SDS011;2496;52.468;13.342;2023-02-19T06:44:32;9.13;;;2.27;;
4961;SDS011;2496;52.468;13.342;2023-02-19T06:46:59;3.87;;;2.53;;
4961;SDS011;2496;52.468;13.342;2023-02-19T06:49:26;9.93;;;2.57;;
4961;SDS011;2496;52.468;13.342;2023-02-19T06:51:54;8.73;;;2.70;;
4961;SDS011;2496;52.468;13.342;2023-02-19T06:54:23;6.33;;;2.00;;
4961;SDS011;2496;52.468;13.342;2023-02-19T06:56:50;8.80;;;2.33;;
4961;SDS011;2496;52.468;13.342;2023-02-19T06:59:17;6.70;;;2.10;;
4961;SDS011;2496;52.468;13.342;2023-02-19T07:01:45;3.33;;;2.37;;
4961;SDS011;2496;52.468;13.342;2023-02-19T07:04:12;4.60;;;2.50;;
4961;SDS011;2496;52.468;13.342;2023-02-19T07:06:39;3.30;;;2.77;;
4961;SDS011;2496;52.468;13.342;2023-02-19T07:09:08;5.27;;;2.63;;
4961;SDS011;2496;52.468;13.342;2023-02-19T07:11:37;5.70;;;2.63;;
4961;SDS011;2496;52.468;13.342;2023-02-19T07:14:05;4.53;;;2.60;;
4961;SDS011;2496;52.468;13.342;2023-02-19T07:16:33;7.83;;;3.10;;
4961;SDS011;2496;52.468;13.342;2023-02-19T07:19:03;10.10;;;2.80;;
4961;SDS011;2496;52.468;13.342;2023-02-19T07:21:30;4.30;;;2.80;;
4961;SDS011;2496;52.468;13.342;2023-02-19T07:24:01;8.20;;;2.70;;
4961;SDS011;2496;52.468;13.342;2023-02-19T07:26:30;9.57;;;3.00;;
4961;SDS011;2496;52.468;13.342;2023-02-19T07:28:57;5.43;;;2.67;;
4961;SDS011;2496;52.468;13.342;2023-02-19T07:31:24;3.00;;;2.37;;
4961;SDS011;2496;52.468;13.342;2023-02-19T07:33:51;4.43;;;2.47;;
4961;SDS011;2496;52.468;13.342;2023-02-19T07:36:21;4.97;;;2.77;;
4961;SDS011;2496;52.468;13.342;2023-02-19T07:38:51;9.27;;;3.00;;
4961;SDS011;2496;52.468;13.342;2023-02-19T07:41:20;8.47;;;3.03;;
4961;SDS011;2496;52.468;13.342;2023-02-19T07:43:52;5.07;;;2.53;;
4961;SDS011;2496;52.468;13.342;2023-02-19T07:46:20;4.00;;;2.70;;
4961;SDS011;2496;52.468;13.342;2023-02-19T07:48:47;7.13;;;2.63;;
4961;SDS011;2496;52.468;13.342;2023-02-19T07:51:15;4.97;;;2.53;;
4961;SDS011;2496;52.468;13.342;2023-02-19T07:53:43;6.13;;;2.60;;
4961;SDS011;2496;52.468;13.342;2023-02-19T07:56:11;5.43;;;2.60;;
4961;SDS011;2496;52.468;13.342;2023-02-19T07:58:39;6.77;;;2.93;;
4961;SDS011;2496;52.468;13.342;2023-02-19T08:01:09;4.50;;;2.27;;
4961;SDS011;2496;52.468;13.342;2023-02-19T08:03:37;6.03;;;2.60;;
4961;SDS011;2496;52.468;13.342;2023-02-19T08:06:03;5.80;;;2.20;;
4961;SDS011;2496;52.468;13.342;2023-02-19T08:08:30;9.90;;;2.33;;
4961;SDS011;2496;52.468;13.342;2023-02-19T08:11:00;7.87;;;2.40;;
4961;SDS011;2496;52.468;13.342;2023-02-19T08:13:46;4.43;;;2.67;;
4961;SDS011;2496;52.468;13.342;2023-02-19T08:16:15;6.00;;;2.60;;
4961;SDS011;2496;52.468;13.342;2023-02-19T08:18:44;5.37;;;2.47;;
4961;SDS011;2496;52.468;13.342;2023-02-19T08:21:14;4.17;;;2.20;;
4961;SDS011;2496;52.468;13.342;2023-02-19T08:23:43;4.00;;;2.07;;
4961;SDS011;2496;52.468;13.342;2023-02-19T08:26:11;5.60;;;2.30;;
4961;SDS011;2496;52.468;13.342;2023-02-19T08:28:38;4.70;;;2.70;;
4961;SDS011;2496;52.468;13.342;2023-02-19T08:31:06;5.03;;;2.50;;
4961;SDS011;2496;52.468;13.342;2023-02-19T08:33:36;3.60;;;2.90;;
4961;SDS011;2496;52.468;13.342;2023-02-19T08:36:04;5.90;;;2.70;;
4961;SDS011;2496;52.468;13.342;2023-02-19T08:38:34;5.63;;;2.00;;
4961;SDS011;2496;52.468;13.342;2023-02-19T08:41:05;3.97;;;2.30;;
4961;SDS011;2496;52.468;13.342;2023-02-19T08:43:33;5.17;;;2.50;;
4961;SDS011;2496;52.468;13.342;2023-02-19T08:46:00;4.70;;;2.10;;
4961;SDS011;2496;52.468;13.342;2023-02-19T08:48:27;5.23;;;2.33;;
4961;SDS011;2496;52.468;13.342;2023-02-19T08:50:58;3.90;;;2.10;;
4961;SDS011;2496;52.468;13.342;2023-02-19T08:53:28;12.27;;;2.10;;
4961;SDS011;2496;52.468;13.342;2023-02-19T08:55:56;4.07;;;2.53;;
4961;SDS011;2496;52.468;13.342;2023-02-19T08:58:23;11.40;;;3.07;;
4961;SDS011;2496;52.468;13.342;2023-02-19T09:00:50;6.43;;;1.93;;
4961;SDS011;2496;52.468;13.342;2023-02-19T09:03:17;6.77;;;2.20;;
4961;SDS011;2496;52.468;13.342;2023-02-19T09:05:44;6.47;;;2.80;;
4961;SDS011;2496;52.468;13.342;2023-02-19T09:08:13;8.63;;;2.60;;
4961;SDS011;2496;52.468;13.342;2023-02-19T09:10:41;7.20;;;2.10;;
4961;SDS011;2496;52.468;13.342;2023-02-19T09:13:08;9.80;;;2.73;;
4961;SDS011;2496;52.468;13.342;2023-02-19T09:15:36;5.20;;;2.37;;
4961;SDS011;2496;52.468;13.342;2023-02-19T09:18:03;4.03;;;2.50;;
4961;SDS011;2496;52.468;13.342;2023-02-19T09:20:31;13.77;;;3.00;;
4961;SDS011;2496;52.468;13.342;2023-02-19T09:22:58;6.87;;;2.07;;
4961;SDS011;2496;52.468;13.342;2023-02-19T09:25:26;9.90;;;2.53;;
4961;SDS011;2496;52.468;13.342;2023-02-19T09:27:54;4.27;;;2.40;;
4961;SDS011;2496;52.468;13.342;2023-02-19T09:30:21;2.80;;;2.30;;
4961;SDS011;2496;52.468;13.342;2023-02-19T09:32:48;6.73;;;2.13;;
4961;SDS011;2496;52.468;13.342;2023-02-19T09:35:15;4.17;;;2.33;;
4961;SDS011;2496;52.468;13.342;2023-02-19T09:37:43;4.27;;;2.30;;
4961;SDS011;2496;52.468;13.342;2023-02-19T09:40:10;12.10;;;3.70;;
4961;SDS011;2496;52.468;13.342;2023-02-19T09:42:39;2.53;;;1.60;;
4961;SDS011;2496;52.468;13.342;2023-02-19T09:45:09;9.80;;;2.50;;
4961;SDS011;2496;52.468;13.342;2023-02-19T09:47:44;12.53;;;2.87;;
4961;SDS011;2496;52.468;13.342;2023-02-19T09:50:13;9.30;;;2.63;;
4961;SDS011;2496;52.468;13.342;2023-02-19T09:52:44;10.83;;;2.63;;
4961;SDS011;2496;52.468;13.342;2023-02-19T09:55:16;6.27;;;2.07;;
4961;SDS011;2496;52.468;13.342;2023-02-19T09:57:50;6.43;;;2.00;;
4961;SDS011;2496;52.468;13.342;2023-02-19T10:00:19;5.53;;;2.00;;
4961;SDS011;2496;52.468;13.342;2023-02-19T10:02:50;4.87;;;2.40;;
4961;SDS011;2496;52.468;13.342;2023-02-19T10:05:19;3.80;;;1.80;;
4961;SDS011;2496;52.468;13.342;2023-02-19T10:07:48;7.03;;;2.33;;
4961;SDS011;2496;52.468;13.342;2023-02-19T10:10:20;4.73;;;1.97;;
4961;SDS011;2496;52.468;13.342;2023-02-19T10:12:53;9.60;;;2.07;;
4961;SDS011;2496;52.468;13.342;2023-02-19T10:15:24;11.53;;;2.20;;
4961;SDS011;2496;52.468;13.342;2023-02-19T10:17:56;4.50;;;1.93;;
4961;SDS011;2496;52.468;13.342;2023-02-19T10:20:24;8.90;;;2.10;;
4961;SDS011;2496;52.468;13.342;2023-02-19T10:22:54;2.17;;;1.40;;
4961;SDS011;2496;52.468;13.342;2023-02-19T10:25:25;3.87;;;1.50;;
4961;SDS011;2496;52.468;13.342;2023-02-19T10:27:54;3.43;;;1.40;;
4961;SDS011;2496;52.468;13.342;2023-02-19T10:30:25;6.13;;;2.13;;
4961;SDS011;2496;52.468;13.342;2023-02-19T10:32:58;12.47;;;4.13;;
4961;SDS011;2496;52.468;13.342;2023-02-19T10:35:28;14.10;;;2.10;;
4961;SDS011;2496;52.468;13.342;2023-02-19T10:37:56;2.40;;;1.70;;
4961;SDS011;2496;52.468;13.342;2023-02-19T10:40:24;5.40;;;2.20;;
4961;SDS011;2496;52.468;13.342;2023-02-19T10:42:55;9.70;;;2.90;;
4961;SDS011;2496;52.468;13.342;2023-02-19T10:45:24;10.20;;;2.43;;
4961;SDS011;2496;52.468;13.342;2023-02-19T10:47:57;9.40;;;2.10;;
4961;SDS011;2496;52.468;13.342;2023-02-19T10:50:26;4.90;;;2.20;;
4961;SDS011;2496;52.468;13.342;2023-02-19T10:52:56;5.83;;;2.40;;
4961;SDS011;2496;52.468;13.342;2023-02-19T10:55:26;9.77;;;4.20;;
4961;SDS011;2496;52.468;13.342;2023-02-19T10:57:57;4.83;;;2.27;;
4961;SDS011;2496;52.468;13.342;2023-02-19T11:00:40;6.33;;;2.90;;
4961;SDS011;2496;52.468;13.342;2023-02-19T11:03:12;5.60;;;2.73;;
4961;SDS011;2496;52.468;13.342;2023-02-19T11:05:56;4.50;;;1.30;;
4961;SDS011;2496;52.468;13.342;2023-02-19T11:08:26;4.10;;;1.70;;
4961;SDS011;2496;52.468;13.342;2023-02-19T11:10:54;4.20;;;1.57;;
4961;SDS011;2496;52.468;13.342;2023-02-19T11:13:25;2.13;;;1.80;;
4961;SDS011;2496;52.468;13.342;2023-02-19T11:15:56;3.73;;;1.80;;
4961;SDS011;2496;52.468;13.342;2023-02-19T11:18:24;9.00;;;3.17;;
4961;SDS011;2496;52.468;13.342;2023-02-19T11:20:53;4.90;;;1.80;;
4961;SDS011;2496;52.468;13.342;2023-02-19T11:23:24;7.63;;;3.33;;
4961;SDS011;2496;52.468;13.342;2023-02-19T11:25:54;4.03;;;1.60;;
4961;SDS011;2496;52.468;13.342;2023-02-19T11:28:28;4.90;;;2.30;;
4961;SDS011;2496;52.468;13.342;2023-02-19T11:31:12;7.90;;;1.80;;
4961;SDS011;2496;52.468;13.342;2023-02-19T11:33:50;4.77;;;1.30;;
4961;SDS011;2496;52.468;13.342;2023-02-19T11:36:26;10.30;;;1.50;;
4961;SDS011;2496;52.468;13.342;2023-02-19T11:38:55;7.50;;;2.00;;
4961;SDS011;2496;52.468;13.342;2023-02-19T11:41:27;10.10;;;1.93;;
4961;SDS011;2496;52.468;13.342;2023-02-19T11:44:12;6.40;;;1.60;;
4961;SDS011;2496;52.468;13.342;2023-02-19T11:46:56;9.40;;;2.10;;
4961;SDS011;2496;52.468;13.342;2023-02-19T11:49:34;6.33;;;2.00;;
4961;SDS011;2496;52.468;13.342;2023-02-19T11:52:16;4.87;;;1.60;;
4961;SDS011;2496;52.468;13.342;2023-02-19T11:54:54;5.93;;;1.40;;
4961;SDS011;2496;52.468;13.342;2023-02-19T11:57:37;9.53;;;3.43;;
4961;SDS011;2496;52.468;13.342;2023-02-19T12:00:22;8.30;;;1.70;;
4961;SDS011;2496;52.468;13.342;2023-02-19T12:02:54;4.40;;;1.57;;
4961;SDS011;2496;52.468;13.342;2023-02-19T12:05:44;5.47;;;1.40;;
4961;SDS011;2496;52.468;13.342;2023-02-19T12:08:34;8.70;;;2.30;;
4961;SDS011;2496;52.468;13.342;2023-02-19T12:11:36;2.53;;;1.43;;
4961;SDS011;2496;52.468;13.342;2023-02-19T12:14:39;5.07;;;1.40;;
4961;SDS011;2496;52.468;13.342;2023-02-19T12:17:29;5.33;;;1.50;;
4961;SDS011;2496;52.468;13.342;2023-02-19T12:20:17;6.80;;;1.60;;
4961;SDS011;2496;52.468;13.342;2023-02-19T12:22:53;3.13;;;1.50;;
4961;SDS011;2496;52.468;13.342;2023-02-19T12:25:45;3.60;;;1.70;;
4961;SDS011;2496;52.468;13.342;2023-02-19T12:28:33;11.20;;;1.87;;
4961;SDS011;2496;52.468;13.342;2023-02-19T12:31:16;7.57;;;1.80;;
4961;SDS011;2496;52.468;13.342;2023-02-19T12:37:06;1.70;;;1.07;;
4961;SDS011;2496;52.468;13.342;2023-02-19T12:39:41;5.40;;;1.60;;
4961;SDS011;2496;52.468;13.342;2023-02-19T12:42:27;5.20;;;1.20;;
4961;SDS011;2496;52.468;13.342;2023-02-19T12:45:06;14.03;;;2.10;;
4961;SDS011;2496;52.468;13.342;2023-02-19T12:47:41;5.10;;;2.00;;
4961;SDS011;2496;52.468;13.342;2023-02-19T12:50:13;3.77;;;1.37;;
4961;SDS011;2496;52.468;13.342;2023-02-19T12:52:47;6.10;;;2.80;;
4961;SDS011;2496;52.468;13.342;2023-02-19T12:55:19;5.63;;;1.93;;
4961;SDS011;2496;52.468;13.342;2023-02-19T12:57:48;6.77;;;1.83;;
4961;SDS011;2496;52.468;13.342;2023-02-19T13:00:25;3.73;;;1.30;;
4961;SDS011;2496;52.468;13.342;2023-02-19T13:02:58;3.93;;;1.60;;
4961;SDS011;2496;52.468;13.342;2023-02-19T13:05:31;5.60;;;1.70;;
4961;SDS011;2496;52.468;13.342;2023-02-19T13:08:11;4.50;;;1.63;;
4961;SDS011;2496;52.468;13.342;2023-02-19T13:10:45;3.10;;;1.50;;
4961;SDS011;2496;52.468;13.342;2023-02-19T13:13:18;3.30;;;1.40;;
4961;SDS011;2496;52.468;13.342;2023-02-19T13:15:49;5.50;;;1.63;;
4961;SDS011;2496;52.468;13.342;2023-02-19T13:18:19;5.10;;;2.20;;
4961;SDS011;2496;52.468;13.342;2023-02-19T13:20:50;2.93;;;1.73;;
4961;SDS011;2496;52.468;13.342;2023-02-19T13:23:22;3.23;;;1.23;;
4961;SDS011;2496;52.468;13.342;2023-02-19T13:26:22;5.13;;;1.43;;
4961;SDS011;2496;52.468;13.342;2023-02-19T13:29:07;5.50;;;1.60;;
4961;SDS011;2496;52.468;13.342;2023-02-19T13:31:49;5.57;;;1.90;;
4961;SDS011;2496;52.468;13.342;2023-02-19T13:34:46;3.37;;;1.60;;
4961;SDS011;2496;52.468;13.342;2023-02-19T13:37:23;3.33;;;1.37;;
4961;SDS011;2496;52.468;13.342;2023-02-19T13:39:58;4.43;;;2.47;;
4961;SDS011;2496;52.468;13.342;2023-02-19T13:42:30;1.40;;;1.20;;
4961;SDS011;2496;52.468;13.342;2023-02-19T13:45:00;6.77;;;2.27;;
4961;SDS011;2496;52.468;13.342;2023-02-19T13:47:48;3.27;;;1.33;;
4961;SDS011;2496;52.468;13.342;2023-02-19T13:50:25;5.10;;;1.63;;
4961;SDS011;2496;52.468;13.342;2023-02-19T13:52:54;5.53;;;1.30;;
4961;SDS011;2496;52.468;13.342;2023-02-19T13:58:35;5.20;;;1.63;;
4961;SDS011;2496;52.468;13.342;2023-02-19T14:01:05;2.30;;;1.23;;
4961;SDS011;2496;52.468;13.342;2023-02-19T14:03:44;2.70;;;1.57;;
4961;SDS011;2496;52.468;13.342;2023-02-19T14:06:15;7.83;;;1.50;;
4961;SDS011;2496;52.468;13.342;2023-02-19T14:08:46;4.17;;;1.40;;
4961;SDS011;2496;52.468;13.342;2023-02-19T14:11:18;5.03;;;1.37;;
4961;SDS011;2496;52.468;13.342;2023-02-19T14:14:24;11.13;;;1.57;;
4961;SDS011;2496;52.468;13.342;2023-02-19T14:16:59;3.37;;;1.33;;
4961;SDS011;2496;52.468;13.342;2023-02-19T14:25:20;7.03;;;1.77;;
4961;SDS011;2496;52.468;13.342;2023-02-19T14:27:56;3.03;;;1.33;;
4961;SDS011;2496;52.468;13.342;2023-02-19T14:30:27;7.40;;;1.60;;
4961;SDS011;2496;52.468;13.342;2023-02-19T14:32:56;6.07;;;1.40;;
4961;SDS011;2496;52.468;13.342;2023-02-19T14:35:24;6.73;;;1.40;;
4961;SDS011;2496;52.468;13.342;2023-02-19T14:37:55;3.30;;;1.10;;
4961;SDS011;2496;52.468;13.342;2023-02-19T14:40:25;6.33;;;1.97;;
4961;SDS011;2496;52.468;13.342;2023-02-19T14:42:58;2.97;;;1.20;;
4961;SDS011;2496;52.468;13.342;2023-02-19T14:45:26;3.17;;;1.60;;
4961;SDS011;2496;52.468;13.342;2023-02-19T14:47:54;2.60;;;1.23;;
4961;SDS011;2496;52.468;13.342;2023-02-19T14:50:25;6.30;;;1.53;;
4961;SDS011;2496;52.468;13.342;2023-02-19T14:52:55;2.00;;;1.10;;
4961;SDS011;2496;52.468;13.342;2023-02-19T14:55:26;1.73;;;1.10;;
4961;SDS011;2496;52.468;13.342;2023-02-19T14:57:58;12.07;;;1.40;;
4961;SDS011;2496;52.468;13.342;2023-02-19T15:00:28;3.90;;;1.33;;
4961;SDS011;2496;52.468;13.342;2023-02-19T15:02:58;6.20;;;1.13;;
4961;SDS011;2496;52.468;13.342;2023-02-19T15:05:27;3.57;;;1.37;;
4961;SDS011;2496;52.468;13.342;2023-02-19T15:07:56;8.10;;;1.40;;
4961;SDS011;2496;52.468;13.342;2023-02-19T15:10:26;3.73;;;1.30;;
4961;SDS011;2496;52.468;13.342;2023-02-19T15:12:56;2.33;;;1.23;;
4961;SDS011;2496;52.468;13.342;2023-02-19T15:15:28;3.73;;;2.10;;
4961;SDS011;2496;52.468;13.342;2023-02-19T15:17:59;4.50;;;1.77;;
4961;SDS011;2496;52.468;13.342;2023-02-19T15:20:28;4.73;;;1.07;;
4961;SDS011;2496;52.468;13.342;2023-02-19T15:22:58;4.10;;;1.60;;
4961;SDS011;2496;52.468;13.342;2023-02-19T15:25:28;4.03;;;1.73;;
4961;SDS011;2496;52.468;13.342;2023-02-19T15:30:45;4.53;;;1.80;;
4961;SDS011;2496;52.468;13.342;2023-02-19T15:33:14;4.30;;;1.47;;
4961;SDS011;2496;52.468;13.342;2023-02-19T15:35:46;4.50;;;1.60;;
4961;SDS011;2496;52.468;13.342;2023-02-19T15:38:14;8.00;;;1.27;;
4961;SDS011;2496;52.468;13.342;2023-02-19T15:40:42;4.67;;;1.50;;
4961;SDS011;2496;52.468;13.342;2023-02-19T15:43:13;8.40;;;2.17;;
4961;SDS011;2496;52.468;13.342;2023-02-19T15:45:48;2.97;;;1.63;;
4961;SDS011;2496;52.468;13.342;2023-02-19T15:48:17;5.20;;;1.60;;
4961;SDS011;2496;52.468;13.342;2023-02-19T15:50:48;4.70;;;1.80;;